Time;durP1;ratioP1;P1;durP2;ratioP2;P2;SDS_P1;SDS_P2;PMS_P1;PMS_P2;Temp;Humidity;BMP_temperature;BMP_pressure;BME280_temperature;BME280_humidity;BME280_pressure;Samples;Min_cycle;Max_cycle;Signal;HPM_P1;HPM_P2
2022/07/08 00:02:05;;;;;;;11.32;1.50;;;15.10;99.90;;;;;;5055945;28;20119;-83
2022/07/08 00:04:31;;;;;;;5.63;1.27;;;15.10;99.90;;;;;;5035077;28;20044;-83
2022/07/08 00:06:57;;;;;;;10.05;1.88;;;15.10;99.90;;;;;;5055443;28;20045;-83
2022/07/08 00:09:22;;;;;;;8.57;1.30;;;15.00;99.90;;;;;;5036099;28;20032;-82
2022/07/08 00:11:48;;;;;;;5.95;1.38;;;15.00;99.90;;;;;;5054104;28;20420;-82
2022/07/08 00:14:14;;;;;;;5.72;1.27;;;15.00;99.90;;;;;;5035131;28;20045;-83
2022/07/08 00:16:40;;;;;;;6.22;1.20;;;15.00;99.90;;;;;;5052420;28;20040;-83
2022/07/08 00:19:07;;;;;;;6.45;1.20;;;15.00;99.90;;;;;;5020386;28;20416;-82
2022/07/08 00:21:34;;;;;;;7.28;1.52;;;14.90;99.90;;;;;;5051923;28;20413;-82
2022/07/08 00:23:59;;;;;;;;;;;14.90;99.90;;;;;;5055849;28;20048;-82
2022/07/08 00:26:25;;;;;;;12.23;1.45;;;14.80;99.90;;;;;;5036388;28;19916;-82
2022/07/08 00:28:51;;;;;;;8.23;1.50;;;14.80;99.90;;;;;;5035365;28;20076;-83
2022/07/08 00:31:16;;;;;;;9.43;1.45;;;14.80;99.90;;;;;;5055069;28;20119;-82
2022/07/08 00:33:42;;;;;;;8.45;1.40;;;14.80;99.90;;;;;;5051577;28;20131;-82
2022/07/08 00:36:08;;;;;;;6.80;1.65;;;14.80;99.90;;;;;;5054197;28;20037;-82
2022/07/08 00:38:33;;;;;;;8.00;1.00;;;14.80;99.90;;;;;;5051520;28;20048;-82
2022/07/08 00:40:59;;;;;;;8.45;1.73;;;14.70;99.90;;;;;;5035321;28;20047;-82
2022/07/08 00:43:39;;;;;;;5.05;1.20;;;14.70;99.90;;;;;;5054390;28;20456;-82
2022/07/08 00:46:06;;;;;;;8.27;1.75;;;14.60;99.90;;;;;;5054607;28;20072;-82
2022/07/08 00:48:32;;;;;;;8.25;1.73;;;14.50;99.90;;;;;;5053782;28;20133;-81
2022/07/08 00:51:00;;;;;;;8.60;1.65;;;14.50;99.90;;;;;;5054308;28;20044;-82
2022/07/08 00:53:28;;;;;;;7.85;1.42;;;14.50;99.90;;;;;;5052356;28;20085;-82
2022/07/08 00:55:54;;;;;;;12.30;1.80;;;14.40;99.90;;;;;;5036443;28;20036;-83
2022/07/08 00:58:20;;;;;;;7.47;2.00;;;14.40;99.90;;;;;;5037130;28;20485;-82
2022/07/08 01:00:47;;;;;;;7.32;1.48;;;14.40;99.90;;;;;;5051206;28;20226;-83
2022/07/08 01:03:13;;;;;;;9.45;1.60;;;14.40;99.90;;;;;;5051324;28;20155;-83
2022/07/08 01:05:38;;;;;;;19.02;1.70;;;14.30;99.90;;;;;;5052344;28;20076;-82
2022/07/08 01:08:05;;;;;;;4.75;1.02;;;14.30;99.90;;;;;;5053494;28;20040;-84
2022/07/08 01:10:30;;;;;;;;;;;14.20;99.90;;;;;;5053535;28;20116;-82
2022/07/08 01:12:56;;;;;;;8.00;1.35;;;14.20;99.90;;;;;;5053699;28;20007;-82
2022/07/08 01:15:23;;;;;;;8.00;1.48;;;14.20;99.90;;;;;;5034714;28;20116;-82
2022/07/08 01:17:48;;;;;;;;;;;14.20;99.90;;;;;;5054813;28;20040;-82
2022/07/08 01:20:15;;;;;;;7.38;1.63;;;14.10;99.90;;;;;;5052526;28;19916;-83
2022/07/08 01:22:41;;;;;;;9.40;1.58;;;14.10;99.90;;;;;;5035294;28;20043;-83
2022/07/08 01:25:07;;;;;;;;;;;14.00;99.90;;;;;;5052292;28;20037;-83
2022/07/08 01:27:33;;;;;;;11.18;1.98;;;14.10;99.90;;;;;;5050682;28;19956;-82
2022/07/08 01:29:59;;;;;;;7.47;1.45;;;14.00;99.90;;;;;;5050936;28;20072;-82
2022/07/08 01:32:37;;;;;;;5.97;1.40;;;13.90;99.90;;;;;;5051694;28;20067;-82
2022/07/08 01:35:03;;;;;;;8.15;1.70;;;13.90;99.90;;;;;;5050672;28;20041;-84
2022/07/08 01:37:29;;;;;;;12.80;1.52;;;13.90;99.90;;;;;;5036709;28;20393;-84
2022/07/08 01:39:55;;;;;;;6.30;1.50;;;13.90;99.90;;;;;;5051497;28;20037;-82
2022/07/08 01:42:21;;;;;;;11.02;2.08;;;13.90;99.90;;;;;;5053012;28;20033;-83
2022/07/08 01:44:47;;;;;;;7.25;1.42;;;13.80;99.90;;;;;;5049951;28;20048;-82
2022/07/08 01:47:13;;;;;;;9.20;1.42;;;13.80;99.90;;;;;;5037485;28;20202;-83
2022/07/08 01:49:38;;;;;;;9.95;1.48;;;13.90;99.90;;;;;;5037149;28;20050;-83
2022/07/08 01:52:08;;;;;;;12.13;1.67;;;13.80;99.90;;;;;;5052977;28;20048;-83
2022/07/08 01:54:34;;;;;;;7.13;1.80;;;13.70;99.90;;;;;;5050870;28;20132;-83
2022/07/08 01:57:15;;;;;;;8.45;1.50;;;13.60;99.90;;;;;;5053516;28;20074;-83
2022/07/08 01:59:45;;;;;;;5.95;1.30;;;13.60;99.90;;;;;;5050302;28;20036;-84
2022/07/08 02:02:13;;;;;;;7.07;1.50;;;13.50;99.90;;;;;;5018070;28;20124;-83
2022/07/08 02:04:39;;;;;;;7.30;1.25;;;13.40;99.90;;;;;;5034479;28;20140;-83
2022/07/08 02:07:04;;;;;;;9.90;1.63;;;13.40;99.90;;;;;;5051116;28;20457;-84
2022/07/08 02:09:30;;;;;;;7.50;1.90;;;13.40;99.90;;;;;;5049555;28;20037;-82
2022/07/08 02:14:41;;;;;;;6.32;1.80;;;13.30;99.90;;;;;;5048717;28;20084;-83
2022/07/08 02:17:07;;;;;;;8.02;1.63;;;13.20;99.90;;;;;;5051518;28;20061;-83
2022/07/08 02:19:33;;;;;;;10.45;1.67;;;13.20;99.90;;;;;;5046071;28;20043;-82
2022/07/08 02:21:59;;;;;;;15.02;2.00;;;13.20;99.90;;;;;;5052349;28;20115;-82
2022/07/08 02:24:25;;;;;;;13.15;2.10;;;13.10;99.90;;;;;;5033407;28;20556;-82
2022/07/08 02:26:51;;;;;;;7.75;2.03;;;13.10;99.90;;;;;;5051105;28;20039;-83
2022/07/08 02:29:17;;;;;;;10.82;1.83;;;13.10;99.90;;;;;;5035257;28;20416;-82
2022/07/08 02:31:42;;;;;;;9.10;1.60;;;13.10;99.90;;;;;;5033383;28;20082;-82
2022/07/08 02:34:08;;;;;;;11.93;2.05;;;13.10;99.90;;;;;;5050583;28;20037;-83
2022/07/08 02:36:34;;;;;;;9.32;1.90;;;13.10;99.90;;;;;;5034932;28;20149;-83
2022/07/08 02:38:59;;;;;;;9.73;1.83;;;13.00;99.90;;;;;;5036435;28;20090;-82
2022/07/08 02:41:25;;;;;;;8.80;1.92;;;13.00;99.90;;;;;;5049808;28;20033;-83
2022/07/08 02:43:51;;;;;;;6.80;1.80;;;13.00;99.90;;;;;;5033200;28;20052;-82
2022/07/08 02:46:16;;;;;;;3.83;1.70;;;13.00;99.90;;;;;;5052002;28;20280;-81
2022/07/08 02:48:42;;;;;;;7.03;1.70;;;13.00;99.90;;;;;;5036090;28;20285;-83
2022/07/08 02:51:08;;;;;;;10.05;1.90;;;13.00;99.90;;;;;;5056444;28;20044;-83
2022/07/08 02:53:33;;;;;;;10.48;1.88;;;13.00;99.90;;;;;;5032831;28;20579;-82
2022/07/08 02:55:59;;;;;;;8.55;1.92;;;13.00;99.90;;;;;;5056672;28;20594;-83
2022/07/08 02:58:25;;;;;;;5.15;1.73;;;13.00;99.90;;;;;;5055118;28;20037;-82
2022/07/08 03:00:50;;;;;;;8.23;1.70;;;12.90;99.90;;;;;;5036247;28;20127;-83
2022/07/08 03:03:16;;;;;;;7.35;2.03;;;13.00;99.90;;;;;;5051490;28;20041;-83
2022/07/08 03:05:42;;;;;;;8.73;1.70;;;12.90;99.90;;;;;;5036013;28;20044;-83
2022/07/08 03:08:07;;;;;;;9.00;1.98;;;12.90;99.90;;;;;;5032593;28;20283;-82
2022/07/08 03:10:33;;;;;;;8.68;1.80;;;12.90;99.90;;;;;;5049947;28;20059;-83
2022/07/08 03:12:59;;;;;;;8.07;2.27;;;12.80;99.90;;;;;;5017470;28;20057;-83
2022/07/08 03:15:25;;;;;;;10.63;2.13;;;12.80;99.90;;;;;;5052841;28;20279;-83
2022/07/08 03:17:51;;;;;;;;;;;12.80;99.90;;;;;;5040006;28;20041;-81
2022/07/08 03:20:18;;;;;;;7.07;1.90;;;12.70;99.90;;;;;;5039768;28;20384;-82
2022/07/08 03:22:44;;;;;;;9.90;2.15;;;12.70;99.90;;;;;;5055188;28;20044;-83
2022/07/08 03:25:10;;;;;;;9.93;2.05;;;12.60;99.90;;;;;;5036614;28;20037;-83
2022/07/08 03:27:36;;;;;;;11.95;2.50;;;12.60;99.90;;;;;;5039849;28;20040;-83
2022/07/08 03:30:02;;;;;;;10.88;2.30;;;12.60;99.90;;;;;;5038556;28;20120;-83
2022/07/08 03:32:28;;;;;;;8.18;2.28;;;12.50;99.90;;;;;;5037281;28;20033;-82
2022/07/08 03:34:54;;;;;;;8.27;2.23;;;12.50;99.90;;;;;;5055480;28;20037;-83
2022/07/08 03:37:19;;;;;;;12.73;2.50;;;12.50;99.90;;;;;;5037822;28;20286;-83
2022/07/08 03:39:46;;;;;;;13.02;2.38;;;12.50;99.90;;;;;;5036282;28;20052;-83
2022/07/08 03:42:12;;;;;;;7.13;1.70;;;12.60;99.90;;;;;;5020590;28;20086;-82
2022/07/08 03:44:37;;;;;;;9.90;1.85;;;12.60;99.90;;;;;;5055834;28;20473;-83
2022/07/08 03:47:03;;;;;;;5.53;1.85;;;12.60;99.90;;;;;;5037458;28;20488;-83
2022/07/08 03:49:29;;;;;;;9.50;2.35;;;12.50;99.90;;;;;;5054675;28;20404;-83
2022/07/08 03:51:55;;;;;;;5.43;1.90;;;12.50;99.90;;;;;;5055367;28;20090;-83
2022/07/08 03:54:20;;;;;;;5.47;2.13;;;12.50;99.90;;;;;;5036165;28;20044;-82
2022/07/08 03:56:46;;;;;;;8.90;2.30;;;12.50;99.90;;;;;;5054985;28;20391;-83
2022/07/08 03:59:12;;;;;;;10.17;2.17;;;12.50;99.90;;;;;;5052775;28;20090;-83
2022/07/08 04:01:37;;;;;;;11.45;2.05;;;12.50;99.90;;;;;;5054589;28;20857;-83
2022/07/08 04:04:03;;;;;;;8.63;2.00;;;12.50;99.90;;;;;;5037144;28;20526;-83
2022/07/08 04:06:29;;;;;;;8.45;1.85;;;12.50;99.90;;;;;;5054141;28;20833;-83
2022/07/08 04:08:54;;;;;;;10.70;1.83;;;12.50;99.90;;;;;;5053304;28;20047;-84
2022/07/08 04:11:20;;;;;;;14.97;2.50;;;12.60;99.90;;;;;;5054652;28;20088;-83
2022/07/08 04:13:46;;;;;;;8.47;1.90;;;12.60;99.90;;;;;;5038070;28;20301;-83
2022/07/08 04:16:15;;;;;;;9.30;2.13;;;12.60;99.90;;;;;;5054599;28;20310;-82
2022/07/08 04:18:41;;;;;;;9.65;2.15;;;12.70;99.90;;;;;;5052186;28;20439;-82
2022/07/08 04:21:08;;;;;;;6.63;2.35;;;12.80;99.90;;;;;;5038935;28;20523;-83
2022/07/08 04:23:34;;;;;;;9.68;1.75;;;12.80;99.90;;;;;;5053050;28;20049;-83
2022/07/08 04:26:00;;;;;;;7.97;2.50;;;12.90;99.90;;;;;;5035458;28;20048;-82
2022/07/08 04:28:26;;;;;;;;;;;12.90;99.90;;;;;;5054409;28;20044;-82
2022/07/08 04:30:52;;;;;;;10.55;2.28;;;13.00;99.90;;;;;;5053292;28;20665;-84
2022/07/08 04:33:18;;;;;;;11.50;2.00;;;13.10;99.90;;;;;;5037291;28;20047;-83
2022/07/08 04:35:43;;;;;;;9.75;2.45;;;13.20;99.90;;;;;;5054009;28;20056;-82
2022/07/08 04:38:09;;;;;;;7.10;1.90;;;13.30;99.90;;;;;;5054799;28;20449;-82
2022/07/08 04:40:35;;;;;;;10.05;2.40;;;13.40;99.90;;;;;;5035386;28;20037;-82
2022/07/08 04:43:01;;;;;;;8.07;1.88;;;13.50;99.90;;;;;;5037351;28;20044;-82
2022/07/08 04:45:26;;;;;;;9.90;2.17;;;13.60;99.90;;;;;;5037989;28;20044;-82
2022/07/08 04:47:53;;;;;;;8.10;2.00;;;13.70;99.90;;;;;;5051967;28;20037;-82
2022/07/08 04:50:19;;;;;;;7.97;1.92;;;13.80;99.90;;;;;;5055217;28;20101;-81
2022/07/08 04:52:45;;;;;;;;;;;13.80;99.90;;;;;;5054770;28;20437;-82
2022/07/08 04:55:27;;;;;;;14.88;2.47;;;14.00;99.90;;;;;;5053722;28;19967;-82
2022/07/08 04:58:03;;;;;;;7.13;2.00;;;14.00;99.90;;;;;;5051718;28;20124;-82
2022/07/08 05:00:31;;;;;;;16.48;2.35;;;14.00;99.90;;;;;;5035272;28;20102;-82
2022/07/08 05:02:57;;;;;;;16.52;2.55;;;14.10;99.90;;;;;;5053365;28;20102;-81
2022/07/08 05:05:23;;;;;;;5.50;1.98;;;14.10;99.90;;;;;;5051963;28;20037;-83
2022/07/08 05:07:49;;;;;;;11.25;2.10;;;14.20;99.90;;;;;;5053210;28;20040;-83
2022/07/08 05:10:16;;;;;;;12.90;1.90;;;14.20;99.90;;;;;;5035221;28;20037;-81
2022/07/08 05:12:43;;;;;;;5.03;1.50;;;14.30;99.90;;;;;;5052104;28;20056;-82
2022/07/08 05:15:09;;;;;;;9.45;1.90;;;14.30;99.90;;;;;;5054642;28;20043;-82
2022/07/08 05:17:35;;;;;;;10.93;2.20;;;14.40;99.90;;;;;;5052613;28;20048;-81
2022/07/08 05:20:01;;;;;;;9.32;2.08;;;14.50;99.90;;;;;;5050876;28;20041;-82
2022/07/08 05:22:26;;;;;;;11.15;2.20;;;14.60;99.90;;;;;;5051606;28;20071;-82
2022/07/08 05:24:52;;;;;;;7.13;1.58;;;14.70;99.90;;;;;;5036931;28;20102;-82
2022/07/08 05:27:18;;;;;;;10.50;1.73;;;14.70;99.90;;;;;;5035760;28;20094;-83
2022/07/08 05:29:43;;;;;;;8.43;1.70;;;14.80;99.90;;;;;;5037825;28;20477;-82
2022/07/08 05:32:09;;;;;;;11.57;2.50;;;14.80;99.90;;;;;;5037120;28;20428;-83
2022/07/08 05:34:35;;;;;;;12.98;2.72;;;15.00;99.90;;;;;;5051136;28;20047;-82
2022/07/08 05:37:01;;;;;;;;;;;15.10;99.90;;;;;;5051234;28;20072;-81
2022/07/08 05:39:27;;;;;;;10.05;2.35;;;15.10;99.90;;;;;;5036090;28;19920;-81
2022/07/08 05:41:52;;;;;;;11.57;2.58;;;15.20;99.90;;;;;;5052251;28;20044;-81
2022/07/08 05:44:18;;;;;;;5.70;1.70;;;15.30;99.90;;;;;;5040410;28;20036;-81
2022/07/08 05:46:44;;;;;;;9.10;2.10;;;15.40;99.90;;;;;;5034103;28;20045;-82
2022/07/08 05:49:09;;;;;;;6.45;1.85;;;15.50;99.90;;;;;;5052460;28;20361;-82
2022/07/08 05:51:35;;;;;;;11.48;1.90;;;15.60;99.90;;;;;;5033620;28;20052;-81
2022/07/08 05:54:01;;;;;;;9.52;2.47;;;15.70;99.90;;;;;;5053633;28;20039;-81
2022/07/08 05:56:26;;;;;;;8.55;1.70;;;15.80;99.90;;;;;;5034213;28;20124;-81
2022/07/08 05:58:52;;;;;;;12.40;2.15;;;15.90;99.90;;;;;;5033779;28;20036;-81
2022/07/08 06:01:18;;;;;;;6.53;1.90;;;16.00;99.90;;;;;;5060211;28;20032;-82
2022/07/08 06:03:43;;;;;;;9.85;1.88;;;16.10;99.90;;;;;;5057661;28;20041;-81
2022/07/08 06:06:09;;;;;;;6.70;1.52;;;16.30;99.90;;;;;;5036678;28;20036;-82
2022/07/08 06:08:35;;;;;;;6.85;2.00;;;16.40;99.90;;;;;;5033999;28;20036;-81
2022/07/08 06:11:01;;;;;;;10.60;1.67;;;16.50;99.90;;;;;;5053450;28;20048;-81
2022/07/08 06:13:27;;;;;;;8.80;1.70;;;16.60;99.90;;;;;;5053631;28;20443;-82
2022/07/08 06:15:53;;;;;;;7.32;1.58;;;16.70;99.90;;;;;;5037121;28;20036;-82
2022/07/08 06:18:19;;;;;;;11.50;2.45;;;16.80;99.90;;;;;;5049838;28;20041;-82
2022/07/08 06:20:45;;;;;;;8.13;2.03;;;16.80;99.90;;;;;;5020526;28;20472;-82
2022/07/08 06:23:10;;;;;;;7.47;1.92;;;16.80;99.90;;;;;;5051005;28;20033;-82
2022/07/08 06:25:36;;;;;;;9.05;1.88;;;16.80;99.90;;;;;;5050872;28;20041;-81
2022/07/08 06:28:02;;;;;;;9.95;1.60;;;16.80;99.90;;;;;;5057051;28;20094;-82
2022/07/08 06:30:28;;;;;;;7.95;1.52;;;16.70;99.90;;;;;;5033956;28;20037;-81
2022/07/08 06:32:54;;;;;;;10.38;1.75;;;16.80;99.90;;;;;;5018333;28;20033;-82
2022/07/08 06:35:20;;;;;;;11.70;1.95;;;16.80;99.90;;;;;;5051479;28;20216;-82
2022/07/08 06:37:46;;;;;;;6.43;1.67;;;16.90;99.90;;;;;;5050411;28;20560;-81
2022/07/08 06:40:11;;;;;;;10.30;1.65;;;17.00;99.90;;;;;;5033715;28;20028;-81
2022/07/08 06:42:37;;;;;;;10.45;1.75;;;17.10;99.90;;;;;;5050803;28;20076;-82
2022/07/08 06:45:03;;;;;;;8.18;1.55;;;17.10;99.90;;;;;;5051022;28;20041;-81
2022/07/08 06:47:29;;;;;;;11.07;2.00;;;17.00;99.90;;;;;;5016405;28;20040;-81
2022/07/08 06:49:55;;;;;;;10.40;1.67;;;17.10;99.90;;;;;;5050669;28;20041;-81
2022/07/08 06:52:20;;;;;;;8.10;1.83;;;17.30;99.90;;;;;;5063557;28;20036;-81
2022/07/08 06:54:47;;;;;;;13.23;1.98;;;17.50;99.90;;;;;;5035172;28;20420;-82
2022/07/08 06:57:14;;;;;;;11.48;1.73;;;17.70;99.90;;;;;;5036360;28;20051;-81
2022/07/08 06:59:40;;;;;;;10.60;2.47;;;17.80;99.90;;;;;;5033367;28;20049;-81
2022/07/08 07:02:05;;;;;;;8.13;1.38;;;17.80;99.90;;;;;;5033599;28;20110;-80
2022/07/08 07:04:31;;;;;;;9.80;1.80;;;17.90;99.90;;;;;;5038279;28;20051;-81
2022/07/08 07:06:57;;;;;;;10.25;1.63;;;17.90;99.90;;;;;;5037572;28;20166;-81
2022/07/08 07:09:23;;;;;;;12.65;1.70;;;18.20;99.90;;;;;;5052672;28;20051;-81
2022/07/08 07:11:49;;;;;;;7.22;1.50;;;18.40;99.90;;;;;;5033335;28;20049;-81
2022/07/08 07:14:14;;;;;;;10.57;1.88;;;18.70;99.90;;;;;;5033993;28;20076;-81
2022/07/08 07:16:40;;;;;;;7.85;1.40;;;19.00;99.90;;;;;;5051123;28;20049;-81
2022/07/08 07:19:06;;;;;;;6.18;1.25;;;19.10;99.90;;;;;;5050752;28;20044;-80
2022/07/08 07:21:32;;;;;;;9.43;1.80;;;19.20;99.90;;;;;;5035682;28;20053;-82
2022/07/08 07:23:57;;;;;;;9.10;1.73;;;19.30;99.90;;;;;;5052499;28;20071;-82
2022/07/08 07:26:23;;;;;;;7.95;1.33;;;19.30;99.90;;;;;;5034327;28;20037;-82
2022/07/08 07:28:49;;;;;;;8.48;1.30;;;19.30;99.90;;;;;;5050400;28;20048;-81
2022/07/08 07:31:14;;;;;;;7.03;1.20;;;19.20;99.90;;;;;;5051174;28;20534;-81
2022/07/08 07:33:40;;;;;;;7.47;1.55;;;19.20;99.90;;;;;;5037341;28;20361;-83
2022/07/08 07:36:06;;;;;;;6.18;1.20;;;19.10;99.90;;;;;;5057247;28;20472;-81
2022/07/08 07:38:34;;;;;;;6.82;1.20;;;19.00;99.90;;;;;;5035709;28;20044;-81
2022/07/08 07:41:00;;;;;;;4.82;1.30;;;18.90;99.90;;;;;;5033816;28;20078;-82
2022/07/08 07:43:26;;;;;;;4.43;1.20;;;19.00;99.90;;;;;;5055871;28;20040;-81
2022/07/08 07:45:51;;;;;;;9.10;1.80;;;19.00;99.90;;;;;;5050851;28;20051;-82
2022/07/08 07:48:17;;;;;;;7.90;1.88;;;19.00;99.90;;;;;;5017172;28;20045;-81
2022/07/08 07:50:43;;;;;;;5.45;1.48;;;19.00;99.90;;;;;;5033451;28;20044;-82
2022/07/08 07:53:09;;;;;;;4.72;1.58;;;19.00;99.90;;;;;;5035450;28;20021;-82
2022/07/08 07:55:34;;;;;;;8.88;1.30;;;18.90;99.90;;;;;;5037750;28;20048;-82
2022/07/08 07:58:00;;;;;;;7.35;1.90;;;19.00;99.90;;;;;;5052859;28;20124;-81
2022/07/08 08:00:26;;;;;;;5.57;1.30;;;19.20;99.90;;;;;;5052139;28;20045;-82
2022/07/08 08:02:52;;;;;;;6.95;1.70;;;19.20;99.90;;;;;;5050568;28;20029;-80
2022/07/08 08:05:18;;;;;;;5.07;1.30;;;19.20;99.90;;;;;;5032164;28;20059;-81
2022/07/08 08:07:44;;;;;;;6.55;1.63;;;19.20;99.90;;;;;;5054632;28;20499;-81
2022/07/08 08:10:14;;;;;;;6.63;1.52;;;19.10;99.90;;;;;;5038694;28;20036;-81
2022/07/08 08:12:41;;;;;;;4.15;1.40;;;19.20;99.90;;;;;;5052771;28;20121;-84
2022/07/08 08:15:07;;;;;;;5.47;1.63;;;19.10;99.90;;;;;;5053431;28;20033;-84
2022/07/08 08:17:43;;;;;;;6.35;1.40;;;19.20;99.90;;;;;;5037877;28;20041;-83
2022/07/08 08:20:11;;;;;;;6.55;1.63;;;19.20;99.90;;;;;;5048318;28;20063;-83
2022/07/08 08:22:38;;;;;;;5.07;1.60;;;19.20;99.90;;;;;;5060690;28;20049;-83
2022/07/08 08:25:04;;;;;;;8.45;1.50;;;19.20;99.90;;;;;;5042331;28;20032;-84
2022/07/08 08:27:30;;;;;;;4.68;1.23;;;19.20;99.90;;;;;;5055462;28;20601;-84
2022/07/08 08:29:55;;;;;;;5.55;1.50;;;19.30;99.90;;;;;;5044389;28;20123;-83
2022/07/08 08:32:21;;;;;;;5.22;1.35;;;19.30;99.90;;;;;;5063731;28;20135;-82
2022/07/08 08:34:47;;;;;;;5.53;1.25;;;19.30;99.90;;;;;;5048675;28;20045;-84
2022/07/08 08:37:13;;;;;;;6.28;1.70;;;19.30;99.90;;;;;;5038835;28;20037;-83
2022/07/08 08:39:39;;;;;;;4.00;1.30;;;19.30;99.90;;;;;;5064267;28;20040;-83
2022/07/08 08:42:07;;;;;;;5.55;1.50;;;19.40;99.90;;;;;;5022785;28;20043;-84
2022/07/08 08:44:33;;;;;;;6.97;1.70;;;19.30;99.90;;;;;;5052789;28;20045;-84
2022/07/08 08:47:01;;;;;;;;;;;19.30;99.90;;;;;;5054563;28;20044;-83
2022/07/08 08:49:32;;;;;;;5.90;1.20;;;19.40;99.90;;;;;;5052218;28;19916;-83
2022/07/08 08:52:01;;;;;;;5.90;1.45;;;19.40;99.90;;;;;;5037116;28;20048;-84
2022/07/08 08:54:31;;;;;;;7.93;1.38;;;19.50;99.90;;;;;;5053472;28;20531;-84
2022/07/08 08:56:57;;;;;;;6.43;1.20;;;19.50;99.90;;;;;;5053197;28;20474;-85
2022/07/08 08:59:23;;;;;;;6.65;1.40;;;19.50;99.90;;;;;;5035802;28;20150;-83
2022/07/08 09:01:49;;;;;;;;;;;19.40;99.90;;;;;;5052861;28;20071;-82
2022/07/08 09:04:15;;;;;;;5.22;1.30;;;19.40;99.90;;;;;;5060316;28;19916;-83
2022/07/08 09:06:41;;;;;;;6.55;1.65;;;19.40;99.90;;;;;;5036300;28;20048;-84
2022/07/08 09:09:07;;;;;;;6.13;1.40;;;19.50;99.90;;;;;;5036047;28;20032;-84
2022/07/08 09:11:34;;;;;;;6.47;1.70;;;19.60;99.90;;;;;;5053300;28;20091;-83
2022/07/08 09:14:16;;;;;;;5.68;1.30;;;19.80;99.90;;;;;;5053276;28;20404;-83
2022/07/08 09:17:17;;;;;;;5.43;1.20;;;19.90;99.90;;;;;;5051608;28;20048;-84
2022/07/08 09:19:46;;;;;;;4.90;1.25;;;20.10;99.90;;;;;;5032286;28;20074;-84
2022/07/08 09:22:12;;;;;;;6.35;1.50;;;20.10;99.90;;;;;;5052392;28;20029;-83
2022/07/08 09:24:41;;;;;;;5.03;1.35;;;20.20;99.90;;;;;;5053419;28;20443;-83
2022/07/08 09:27:08;;;;;;;6.68;1.50;;;20.20;99.90;;;;;;5037588;28;20047;-84
2022/07/08 09:29:38;;;;;;;11.85;1.35;;;20.30;99.90;;;;;;5050902;28;20073;-84
2022/07/08 09:32:11;;;;;;;5.57;1.20;;;20.40;99.90;;;;;;5053364;28;20075;-83
2022/07/08 09:34:37;;;;;;;3.65;1.40;;;20.40;99.90;;;;;;5054270;28;20048;-83
2022/07/08 09:37:23;;;;;;;6.78;1.50;;;20.50;99.90;;;;;;5037266;28;20102;-83
2022/07/08 09:39:49;;;;;;;3.42;1.00;;;20.30;99.90;;;;;;5052417;28;20090;-83
2022/07/08 09:42:17;;;;;;;3.92;1.02;;;20.40;99.90;;;;;;5035787;28;20037;-83
2022/07/08 09:44:51;;;;;;;6.57;1.00;;;20.50;99.90;;;;;;5037239;28;20048;-83
2022/07/08 09:47:16;;;;;;;8.07;1.10;;;20.50;99.90;;;;;;5051459;28;20094;-84
2022/07/08 09:49:46;;;;;;;4.00;1.23;;;20.60;99.90;;;;;;5051517;28;20312;-84
2022/07/08 09:52:23;;;;;;;6.20;1.27;;;20.80;99.90;;;;;;5053049;28;20033;-84
2022/07/08 09:55:02;;;;;;;7.60;1.75;;;20.90;99.90;;;;;;5058459;28;20045;-83
2022/07/08 09:57:29;;;;;;;7.80;1.30;;;20.90;99.90;;;;;;5055915;28;20048;-85
2022/07/08 09:59:56;;;;;;;7.57;1.40;;;21.00;99.90;;;;;;5052847;28;20112;-85
2022/07/08 10:02:22;;;;;;;7.18;1.17;;;21.00;99.90;;;;;;5052816;28;20033;-85
2022/07/08 10:04:50;;;;;;;5.97;1.33;;;21.10;99.90;;;;;;5052651;28;20039;-85
2022/07/08 10:07:16;;;;;;;5.43;1.20;;;21.10;99.90;;;;;;5048381;28;20040;-85
2022/07/08 10:09:42;;;;;;;5.55;1.10;;;21.20;99.90;;;;;;5038897;28;20122;-85
2022/07/08 10:12:10;;;;;;;;;;;21.30;99.90;;;;;;5045557;28;20057;-85
2022/07/08 10:14:36;;;;;;;7.22;1.40;;;21.40;99.90;;;;;;5040065;28;19921;-85
2022/07/08 10:17:09;;;;;;;4.85;1.30;;;21.60;99.90;;;;;;5023450;28;20064;-85
2022/07/08 10:19:40;;;;;;;6.13;1.60;;;21.70;99.90;;;;;;5037441;28;20045;-85
2022/07/08 10:22:08;;;;;;;5.07;1.55;;;21.90;99.90;;;;;;5022552;28;20390;-85
2022/07/08 10:24:39;;;;;;;8.07;1.25;;;22.00;99.90;;;;;;5042267;28;20044;-87
2022/07/08 10:27:05;;;;;;;9.52;1.30;;;22.00;99.90;;;;;;5045343;28;20040;-85
2022/07/08 10:29:31;;;;;;;;;;;22.10;99.90;;;;;;5042004;28;20044;-86
2022/07/08 10:31:59;;;;;;;3.90;1.20;;;22.10;99.90;;;;;;5027740;28;19928;-86
2022/07/08 10:34:35;;;;;;;7.75;1.40;;;22.10;99.90;;;;;;5021578;28;20034;-87
2022/07/08 10:37:03;;;;;;;8.10;1.67;;;22.10;99.90;;;;;;5039986;28;20045;-86
2022/07/08 10:39:28;;;;;;;5.05;1.50;;;22.00;99.90;;;;;;5023555;28;20036;-86
2022/07/08 10:41:58;;;;;;;6.97;1.52;;;22.00;99.90;;;;;;5030822;28;20454;-87
2022/07/08 10:44:43;;;;;;;5.53;1.40;;;22.10;99.90;;;;;;5017669;28;20044;-86
2022/07/08 10:47:12;;;;;;;6.78;1.63;;;22.10;99.90;;;;;;5040647;28;20440;-88
2022/07/08 10:49:45;;;;;;;7.20;1.40;;;22.20;99.90;;;;;;5024996;28;20041;-87
2022/07/08 10:52:15;;;;;;;5.03;1.23;;;22.20;99.90;;;;;;5039211;28;20124;-86
2022/07/08 10:54:42;;;;;;;7.85;1.67;;;22.30;99.90;;;;;;5011640;28;20041;-87
2022/07/08 10:57:15;;;;;;;6.30;1.65;;;22.50;99.90;;;;;;5023057;28;20123;-86
2022/07/08 10:59:41;;;;;;;5.40;1.27;;;22.80;99.90;;;;;;5021824;28;20083;-86
2022/07/08 11:02:14;;;;;;;;;;;23.00;99.90;;;;;;5041370;28;20266;-86
2022/07/08 11:04:40;;;;;;;6.30;1.50;;;23.10;99.90;;;;;;5037129;28;20004;-78
2022/07/08 11:07:23;;;;;;;;;;;23.20;99.90;;;;;;5021903;28;20458;-79
2022/07/08 11:10:09;;;;;;;7.15;1.77;;;23.40;99.90;;;;;;5036508;28;19995;-79
2022/07/08 11:12:36;;;;;;;7.70;1.70;;;23.60;99.90;;;;;;5042142;28;20062;-79
2022/07/08 11:15:10;;;;;;;6.53;1.20;;;23.60;99.90;;;;;;5043397;28;20049;-79
2022/07/08 11:17:37;;;;;;;4.80;1.75;;;23.80;99.90;;;;;;5037668;28;20041;-79
2022/07/08 11:20:13;;;;;;;4.45;1.13;;;23.80;99.90;;;;;;5038069;28;20153;-79
2022/07/08 11:22:42;;;;;;;4.70;1.25;;;24.00;99.90;;;;;;5039696;28;20099;-79
2022/07/08 11:25:09;;;;;;;4.55;1.40;;;24.30;99.90;;;;;;5024969;28;20053;-79
2022/07/08 11:27:35;;;;;;;6.20;1.52;;;24.50;99.90;;;;;;4999600;28;20072;-79
2022/07/08 11:30:03;;;;;;;;;;;24.70;99.90;;;;;;5021877;28;20072;-79
2022/07/08 11:32:30;;;;;;;4.88;1.45;;;25.10;99.90;;;;;;5040305;28;19917;-80
2022/07/08 11:34:56;;;;;;;6.82;1.20;;;25.50;99.90;;;;;;5046416;28;20065;-81
2022/07/08 11:37:23;;;;;;;5.38;1.40;;;25.80;99.90;;;;;;5047711;28;20041;-83
2022/07/08 11:39:49;;;;;;;5.75;1.33;;;26.00;99.90;;;;;;5053884;28;20040;-83
2022/07/08 11:42:15;;;;;;;5.80;1.30;;;26.00;99.90;;;;;;5039329;28;20041;-81
2022/07/08 11:44:42;;;;;;;4.70;1.40;;;26.30;99.90;;;;;;5045783;28;20124;-79
2022/07/08 11:47:10;;;;;;;5.40;1.30;;;26.10;99.90;;;;;;5046337;28;20497;-78
2022/07/08 11:49:42;;;;;;;2.78;1.10;;;26.10;99.90;;;;;;5027420;28;20450;-79
2022/07/08 11:52:08;;;;;;;4.28;1.20;;;26.00;99.90;;;;;;5040765;28;20037;-79
2022/07/08 11:54:34;;;;;;;7.00;1.45;;;25.90;99.90;;;;;;5043202;28;20447;-78
2022/07/08 11:57:01;;;;;;;5.63;1.40;;;25.50;99.90;;;;;;5043192;28;20120;-79
2022/07/08 11:59:29;;;;;;;6.85;1.55;;;25.60;99.90;;;;;;5052449;28;20063;-80
2022/07/08 12:01:57;;;;;;;6.60;1.40;;;25.40;99.90;;;;;;5041438;28;20036;-79
2022/07/08 12:04:23;;;;;;;6.82;1.45;;;25.20;99.90;;;;;;5029970;28;20116;-81
2022/07/08 12:07:02;;;;;;;3.13;1.30;;;25.00;99.90;;;;;;5043483;28;20120;-78
2022/07/08 12:09:29;;;;;;;5.60;2.08;;;25.00;99.90;;;;;;5031649;28;20469;-78
2022/07/08 12:11:57;;;;;;;6.10;1.95;;;24.90;99.90;;;;;;5026114;28;20088;-79
2022/07/08 12:14:24;;;;;;;8.00;1.80;;;24.70;99.90;;;;;;5027686;28;20401;-79
2022/07/08 12:16:55;;;;;;;6.60;2.30;;;24.50;99.90;;;;;;5031169;28;20493;-81
2022/07/08 12:19:31;;;;;;;5.03;1.92;;;24.40;99.90;;;;;;5050287;28;20547;-78
2022/07/08 12:22:02;;;;;;;6.72;1.88;;;24.40;99.90;;;;;;5045228;28;20045;-78
2022/07/08 12:24:38;;;;;;;8.45;2.20;;;24.40;99.90;;;;;;5029999;28;20075;-83
2022/07/08 12:27:09;;;;;;;4.88;1.80;;;24.60;99.90;;;;;;5027148;28;20040;-83
2022/07/08 12:29:37;;;;;;;6.57;2.20;;;25.10;99.90;;;;;;5039902;28;20068;-82
2022/07/08 12:32:07;;;;;;;4.30;1.70;;;25.40;99.90;;;;;;5025497;28;20045;-83
2022/07/08 12:34:33;;;;;;;8.68;2.20;;;25.30;99.90;;;;;;5041309;28;20044;-83
2022/07/08 12:37:15;;;;;;;5.43;1.80;;;25.20;99.90;;;;;;5042527;28;20041;-83
2022/07/08 12:39:41;;;;;;;7.80;1.70;;;25.30;99.90;;;;;;5049781;28;20089;-83
2022/07/08 12:42:07;;;;;;;4.80;2.03;;;25.50;99.90;;;;;;5047425;28;20052;-84
2022/07/08 12:44:39;;;;;;;7.85;2.15;;;25.30;99.90;;;;;;5039610;28;20068;-83
2022/07/08 12:47:06;;;;;;;7.22;2.30;;;25.40;99.90;;;;;;5041693;28;20060;-83
2022/07/08 12:49:33;;;;;;;8.10;2.05;;;25.40;99.90;;;;;;5047098;28;20438;-82
2022/07/08 12:52:00;;;;;;;6.03;1.75;;;25.30;99.90;;;;;;5030110;28;20041;-81